sensor_id;sensor_type;location;lat;lon;timestamp;pressure;altitude;pressure_sealevel;temperature;humidity
15817;BME280;8009;50.070;8.232;2023-05-19T00:12:13;100704.50;;;13.39;46.22
15817;BME280;8009;50.070;8.232;2023-05-19T01:15:10;100675.34;;;12.46;49.38
15817;BME280;8009;50.070;8.232;2023-05-19T01:17:44;100674.31;;;12.10;50.37
15817;BME280;8009;50.070;8.232;2023-05-19T03:31:32;100670.00;;;10.75;55.99
15817;BME280;8009;50.070;8.232;2023-05-19T03:34:00;100676.69;;;10.69;56.24
15817;BME280;8009;50.070;8.232;2023-05-19T03:36:29;100673.56;;;10.76;55.66
15817;BME280;8009;50.070;8.232;2023-05-19T03:42:19;100668.78;;;10.52;56.49
15817;BME280;8009;50.070;8.232;2023-05-19T03:44:48;100674.50;;;10.47;55.80
15817;BME280;8009;50.070;8.232;2023-05-19T03:47:19;100676.88;;;10.93;55.51
15817;BME280;8009;50.070;8.232;2023-05-19T03:49:47;100669.94;;;11.16;54.96
15817;BME280;8009;50.070;8.232;2023-05-19T03:52:16;100672.25;;;10.95;54.89
15817;BME280;8009;50.070;8.232;2023-05-19T04:23:13;100681.78;;;10.74;56.13
15817;BME280;8009;50.070;8.232;2023-05-19T04:25:42;100686.47;;;10.85;55.31
15817;BME280;8009;50.070;8.232;2023-05-19T05:38:16;100685.56;;;12.66;53.80
15817;BME280;8009;50.070;8.232;2023-05-19T05:47:07;100681.81;;;13.16;52.90
15817;BME280;8009;50.070;8.232;2023-05-19T05:49:37;100677.66;;;13.24;50.63
15817;BME280;8009;50.070;8.232;2023-05-19T05:52:07;100680.69;;;13.19;52.33
15817;BME280;8009;50.070;8.232;2023-05-19T05:54:43;100678.72;;;12.97;53.24
15817;BME280;8009;50.070;8.232;2023-05-19T05:57:11;100683.69;;;13.03;49.89
15817;BME280;8009;50.070;8.232;2023-05-19T05:59:40;100681.53;;;13.32;48.91
15817;BME280;8009;50.070;8.232;2023-05-19T06:02:09;100677.53;;;13.49;49.31
15817;BME280;8009;50.070;8.232;2023-05-19T06:04:38;100680.13;;;13.51;48.38
15817;BME280;8009;50.070;8.232;2023-05-19T06:07:06;100678.25;;;13.40;49.22
15817;BME280;8009;50.070;8.232;2023-05-19T06:09:36;100672.75;;;13.64;47.34
15817;BME280;8009;50.070;8.232;2023-05-19T06:14:42;100666.38;;;13.76;47.78
15817;BME280;8009;50.070;8.232;2023-05-19T06:17:11;100668.13;;;14.00;46.23
15817;BME280;8009;50.070;8.232;2023-05-19T06:19:39;100672.94;;;14.07;47.77
15817;BME280;8009;50.070;8.232;2023-05-19T06:22:07;100674.06;;;13.94;46.51
15817;BME280;8009;50.070;8.232;2023-05-19T06:24:36;100672.59;;;14.12;47.12
15817;BME280;8009;50.070;8.232;2023-05-19T06:27:04;100676.03;;;14.03;46.14
15817;BME280;8009;50.070;8.232;2023-05-19T06:29:32;100671.38;;;14.16;46.40
15817;BME280;8009;50.070;8.232;2023-05-19T06:32:04;100663.47;;;14.24;45.79
15817;BME280;8009;50.070;8.232;2023-05-19T06:34:32;100663.94;;;14.29;45.25
15817;BME280;8009;50.070;8.232;2023-05-19T06:37:02;100664.31;;;14.25;45.65
15817;BME280;8009;50.070;8.232;2023-05-19T06:39:31;100662.22;;;14.39;45.11
15817;BME280;8009;50.070;8.232;2023-05-19T06:41:59;100657.41;;;14.43;45.27
15817;BME280;8009;50.070;8.232;2023-05-19T06:44:27;100654.31;;;14.70;45.57
15817;BME280;8009;50.070;8.232;2023-05-19T06:46:56;100654.53;;;14.78;44.58
15817;BME280;8009;50.070;8.232;2023-05-19T06:49:26;100656.88;;;14.83;45.26
15817;BME280;8009;50.070;8.232;2023-05-19T06:51:55;100664.88;;;14.96;43.45
15817;BME280;8009;50.070;8.232;2023-05-19T06:54:23;100659.34;;;14.86;43.57
15817;BME280;8009;50.070;8.232;2023-05-19T06:56:51;100656.97;;;14.93;43.28
15817;BME280;8009;50.070;8.232;2023-05-19T06:59:20;100661.94;;;14.76;43.91
15817;BME280;8009;50.070;8.232;2023-05-19T07:01:48;100659.09;;;14.78;43.57
15817;BME280;8009;50.070;8.232;2023-05-19T07:04:16;100658.09;;;14.90;43.12
15817;BME280;8009;50.070;8.232;2023-05-19T07:06:48;100659.91;;;15.01;43.30
15817;BME280;8009;50.070;8.232;2023-05-19T07:09:17;100659.16;;;14.99;43.78
15817;BME280;8009;50.070;8.232;2023-05-19T07:11:46;100656.78;;;15.05;42.61
15817;BME280;8009;50.070;8.232;2023-05-19T07:14:14;100662.66;;;15.22;42.70
15817;BME280;8009;50.070;8.232;2023-05-19T07:16:42;100664.22;;;15.35;42.32
15817;BME280;8009;50.070;8.232;2023-05-19T07:19:13;100658.28;;;15.42;42.41
15817;BME280;8009;50.070;8.232;2023-05-19T07:21:43;100650.34;;;15.59;42.30
15817;BME280;8009;50.070;8.232;2023-05-19T07:24:14;100656.53;;;15.41;43.70
15817;BME280;8009;50.070;8.232;2023-05-19T07:26:43;100647.66;;;15.39;42.90
15817;BME280;8009;50.070;8.232;2023-05-19T07:29:12;100646.84;;;15.27;43.49
15817;BME280;8009;50.070;8.232;2023-05-19T07:31:40;100639.00;;;15.33;43.17
15817;BME280;8009;50.070;8.232;2023-05-19T07:34:08;100642.75;;;15.74;41.88
15817;BME280;8009;50.070;8.232;2023-05-19T07:36:37;100647.28;;;15.53;43.44
15817;BME280;8009;50.070;8.232;2023-05-19T07:39:05;100643.34;;;15.57;42.03
15817;BME280;8009;50.070;8.232;2023-05-19T07:41:38;100638.88;;;15.56;41.59
15817;BME280;8009;50.070;8.232;2023-05-19T07:44:07;100644.81;;;15.61;41.49
15817;BME280;8009;50.070;8.232;2023-05-19T07:46:35;100643.91;;;15.60;42.35
15817;BME280;8009;50.070;8.232;2023-05-19T07:49:04;100637.00;;;15.56;42.00
15817;BME280;8009;50.070;8.232;2023-05-19T07:51:32;100633.63;;;15.43;42.17
15817;BME280;8009;50.070;8.232;2023-05-19T07:54:01;100634.66;;;15.84;42.52
15817;BME280;8009;50.070;8.232;2023-05-19T07:56:30;100638.34;;;15.83;43.64
15817;BME280;8009;50.070;8.232;2023-05-19T07:59:01;100633.50;;;15.87;41.74
15817;BME280;8009;50.070;8.232;2023-05-19T08:01:31;100632.31;;;16.00;42.93
15817;BME280;8009;50.070;8.232;2023-05-19T08:04:03;100632.16;;;16.02;42.56
15817;BME280;8009;50.070;8.232;2023-05-19T08:06:32;100621.13;;;16.34;41.52
15817;BME280;8009;50.070;8.232;2023-05-19T08:09:03;100632.03;;;16.03;42.52
15817;BME280;8009;50.070;8.232;2023-05-19T08:11:32;100629.00;;;15.97;42.06
15817;BME280;8009;50.070;8.232;2023-05-19T08:14:06;100632.91;;;16.14;41.18
15817;BME280;8009;50.070;8.232;2023-05-19T08:16:37;100624.03;;;16.42;41.72
15817;BME280;8009;50.070;8.232;2023-05-19T08:19:10;100625.34;;;16.57;41.41
15817;BME280;8009;50.070;8.232;2023-05-19T08:21:56;100614.59;;;16.66;40.43
15817;BME280;8009;50.070;8.232;2023-05-19T08:24:37;100617.59;;;16.63;41.12
15817;BME280;8009;50.070;8.232;2023-05-19T08:27:08;100617.25;;;16.96;42.10
15817;BME280;8009;50.070;8.232;2023-05-19T08:29:40;100611.22;;;17.32;39.56
15817;BME280;8009;50.070;8.232;2023-05-19T08:32:15;100611.19;;;17.90;39.12
15817;BME280;8009;50.070;8.232;2023-05-19T08:34:44;100602.94;;;17.99;38.14
15817;BME280;8009;50.070;8.232;2023-05-19T08:37:14;100606.13;;;18.32;37.48
15817;BME280;8009;50.070;8.232;2023-05-19T08:39:43;100602.44;;;18.96;35.09
15817;BME280;8009;50.070;8.232;2023-05-19T08:42:12;100582.75;;;19.37;34.63
15817;BME280;8009;50.070;8.232;2023-05-19T08:44:45;100589.69;;;19.05;35.43
15817;BME280;8009;50.070;8.232;2023-05-19T08:47:22;100596.09;;;18.78;35.17
15817;BME280;8009;50.070;8.232;2023-05-19T08:50:01;100587.81;;;18.60;35.39
15817;BME280;8009;50.070;8.232;2023-05-19T08:52:40;100587.88;;;18.78;38.42
15817;BME280;8009;50.070;8.232;2023-05-19T08:55:16;100584.47;;;18.66;35.83
15817;BME280;8009;50.070;8.232;2023-05-19T08:57:51;100581.16;;;18.90;34.07
15817;BME280;8009;50.070;8.232;2023-05-19T09:00:23;100573.13;;;19.51;32.72
15817;BME280;8009;50.070;8.232;2023-05-19T09:02:53;100574.63;;;19.63;33.49
15817;BME280;8009;50.070;8.232;2023-05-19T09:05:24;100568.19;;;19.80;33.08
15817;BME280;8009;50.070;8.232;2023-05-19T09:07:52;100559.09;;;20.48;34.63
15817;BME280;8009;50.070;8.232;2023-05-19T09:10:30;100554.63;;;20.39;32.39
15817;BME280;8009;50.070;8.232;2023-05-19T09:12:58;100553.50;;;20.50;31.69
15817;BME280;8009;50.070;8.232;2023-05-19T09:15:30;100552.03;;;20.80;31.70
15817;BME280;8009;50.070;8.232;2023-05-19T09:18:26;100549.75;;;20.75;32.46
15817;BME280;8009;50.070;8.232;2023-05-19T09:20:56;100542.75;;;21.13;30.41
15817;BME280;8009;50.070;8.232;2023-05-19T09:23:29;100547.25;;;21.14;29.97
15817;BME280;8009;50.070;8.232;2023-05-19T09:26:01;100549.63;;;21.01;29.49
15817;BME280;8009;50.070;8.232;2023-05-19T09:40:34;100523.22;;;21.00;29.27
15817;BME280;8009;50.070;8.232;2023-05-19T09:43:04;100521.69;;;21.38;30.03
15817;BME280;8009;50.070;8.232;2023-05-19T09:45:32;100513.94;;;20.93;30.37
15817;BME280;8009;50.070;8.232;2023-05-19T09:57:53;100513.72;;;20.54;31.09
15817;BME280;8009;50.070;8.232;2023-05-19T10:00:22;100517.94;;;20.40;31.02
15817;BME280;8009;50.070;8.232;2023-05-19T10:06:26;100499.00;;;21.12;30.59
15817;BME280;8009;50.070;8.232;2023-05-19T10:18:28;100490.34;;;20.41;31.64
15817;BME280;8009;50.070;8.232;2023-05-19T10:24:28;100485.59;;;21.17;30.22
15817;BME280;8009;50.070;8.232;2023-05-19T10:38:40;100473.59;;;21.42;29.45
15817;BME280;8009;50.070;8.232;2023-05-19T10:44:39;100469.75;;;22.07;28.47
15817;BME280;8009;50.070;8.232;2023-05-19T10:47:13;100457.38;;;21.72;29.14
15817;BME280;8009;50.070;8.232;2023-05-19T10:49:42;100464.97;;;21.62;30.51
15817;BME280;8009;50.070;8.232;2023-05-19T10:52:20;100468.28;;;21.08;29.43
15817;BME280;8009;50.070;8.232;2023-05-19T10:55:00;100464.00;;;21.06;29.75
15817;BME280;8009;50.070;8.232;2023-05-19T10:57:29;100462.28;;;21.13;30.05
15817;BME280;8009;50.070;8.232;2023-05-19T11:00:26;100457.84;;;20.87;30.22
15817;BME280;8009;50.070;8.232;2023-05-19T11:03:11;100461.97;;;21.00;31.40
15817;BME280;8009;50.070;8.232;2023-05-19T11:05:40;100467.94;;;20.62;31.64
15817;BME280;8009;50.070;8.232;2023-05-19T11:08:15;100461.44;;;20.88;35.16
15817;BME280;8009;50.070;8.232;2023-05-19T11:11:16;100469.00;;;20.78;31.66
15817;BME280;8009;50.070;8.232;2023-05-19T11:13:47;100474.63;;;20.60;32.64
15817;BME280;8009;50.070;8.232;2023-05-19T11:16:17;100458.88;;;20.62;31.67
15817;BME280;8009;50.070;8.232;2023-05-19T11:19:16;100470.88;;;20.61;32.25
15817;BME280;8009;50.070;8.232;2023-05-19T11:22:07;100469.97;;;20.52;31.54
15817;BME280;8009;50.070;8.232;2023-05-19T11:24:43;100456.97;;;20.54;31.51
15817;BME280;8009;50.070;8.232;2023-05-19T11:27:26;100456.44;;;21.24;31.76
15817;BME280;8009;50.070;8.232;2023-05-19T11:30:00;100449.25;;;21.15;31.45
15817;BME280;8009;50.070;8.232;2023-05-19T11:32:34;100445.44;;;21.32;30.58
15817;BME280;8009;50.070;8.232;2023-05-19T11:38:12;100444.81;;;20.57;30.56
15817;BME280;8009;50.070;8.232;2023-05-19T11:40:43;100447.19;;;20.60;30.37
15817;BME280;8009;50.070;8.232;2023-05-19T11:43:31;100447.69;;;20.55;30.53
15817;BME280;8009;50.070;8.232;2023-05-19T11:46:03;100448.50;;;20.39;30.88
15817;BME280;8009;50.070;8.232;2023-05-19T11:48:32;100448.63;;;20.21;30.82
15817;BME280;8009;50.070;8.232;2023-05-19T11:51:01;100439.09;;;20.34;30.65
15817;BME280;8009;50.070;8.232;2023-05-19T11:53:30;100438.59;;;20.47;30.41
15817;BME280;8009;50.070;8.232;2023-05-19T11:59:28;100433.13;;;20.79;32.06
15817;BME280;8009;50.070;8.232;2023-05-19T12:02:00;100433.47;;;20.60;31.82
15817;BME280;8009;50.070;8.232;2023-05-19T12:04:33;100441.22;;;20.64;31.27
15817;BME280;8009;50.070;8.232;2023-05-19T12:07:02;100432.28;;;20.62;32.48
15817;BME280;8009;50.070;8.232;2023-05-19T12:09:31;100425.94;;;20.62;32.23
15817;BME280;8009;50.070;8.232;2023-05-19T12:12:15;100430.38;;;20.79;32.00
15817;BME280;8009;50.070;8.232;2023-05-19T12:14:51;100426.44;;;20.98;31.89
15817;BME280;8009;50.070;8.232;2023-05-19T12:17:21;100422.34;;;20.78;32.02
15817;BME280;8009;50.070;8.232;2023-05-19T12:20:07;100419.94;;;20.75;34.23
15817;BME280;8009;50.070;8.232;2023-05-19T12:22:39;100429.38;;;20.72;32.55
15817;BME280;8009;50.070;8.232;2023-05-19T12:25:20;100421.31;;;20.54;33.34
15817;BME280;8009;50.070;8.232;2023-05-19T12:27:49;100419.94;;;20.58;34.77
15817;BME280;8009;50.070;8.232;2023-05-19T12:30:27;100428.59;;;20.37;32.27
15817;BME280;8009;50.070;8.232;2023-05-19T12:33:23;100420.06;;;20.40;32.89
15817;BME280;8009;50.070;8.232;2023-05-19T12:35:54;100419.38;;;20.38;33.28
15817;BME280;8009;50.070;8.232;2023-05-19T12:38:23;100422.78;;;20.32;33.41
15817;BME280;8009;50.070;8.232;2023-05-19T12:40:51;100419.53;;;20.37;34.32
15817;BME280;8009;50.070;8.232;2023-05-19T12:43:20;100406.56;;;20.55;34.50
15817;BME280;8009;50.070;8.232;2023-05-19T12:45:52;100414.13;;;20.69;35.43
15817;BME280;8009;50.070;8.232;2023-05-19T12:48:23;100411.16;;;20.47;35.49
15817;BME280;8009;50.070;8.232;2023-05-19T12:50:53;100423.50;;;20.42;33.55
15817;BME280;8009;50.070;8.232;2023-05-19T12:53:26;100416.84;;;20.53;33.15
15817;BME280;8009;50.070;8.232;2023-05-19T12:55:59;100404.16;;;20.77;33.49
15817;BME280;8009;50.070;8.232;2023-05-19T12:58:32;100408.44;;;20.55;33.29
15817;BME280;8009;50.070;8.232;2023-05-19T13:01:05;100408.94;;;20.34;33.57
15817;BME280;8009;50.070;8.232;2023-05-19T13:06:59;100402.63;;;20.58;33.74
15817;BME280;8009;50.070;8.232;2023-05-19T13:09:27;100407.56;;;20.38;33.94
15817;BME280;8009;50.070;8.232;2023-05-19T13:11:59;100400.13;;;20.14;34.18
15817;BME280;8009;50.070;8.232;2023-05-19T13:14:30;100400.47;;;20.11;34.57
15817;BME280;8009;50.070;8.232;2023-05-19T13:17:01;100402.72;;;20.24;34.61
15817;BME280;8009;50.070;8.232;2023-05-19T13:19:51;100394.31;;;20.33;34.60
15817;BME280;8009;50.070;8.232;2023-05-19T13:22:19;100400.00;;;20.24;34.01
15817;BME280;8009;50.070;8.232;2023-05-19T14:17:41;100380.41;;;20.02;35.88
15817;BME280;8009;50.070;8.232;2023-05-19T14:20:16;100374.38;;;19.90;36.29
15817;BME280;8009;50.070;8.232;2023-05-19T14:22:44;100369.44;;;19.94;36.53
15817;BME280;8009;50.070;8.232;2023-05-19T14:31:34;100355.25;;;20.23;36.07
15817;BME280;8009;50.070;8.232;2023-05-19T14:34:05;100355.94;;;20.25;36.47
15817;BME280;8009;50.070;8.232;2023-05-19T14:36:34;100357.81;;;20.16;35.63
15817;BME280;8009;50.070;8.232;2023-05-19T14:39:02;100351.50;;;20.24;35.87
15817;BME280;8009;50.070;8.232;2023-05-19T14:41:30;100350.97;;;20.29;36.47
15817;BME280;8009;50.070;8.232;2023-05-19T14:44:00;100363.31;;;20.16;36.39
15817;BME280;8009;50.070;8.232;2023-05-19T14:46:28;100355.25;;;20.31;35.41
15817;BME280;8009;50.070;8.232;2023-05-19T14:48:57;100348.03;;;20.22;35.63
15817;BME280;8009;50.070;8.232;2023-05-19T14:51:28;100352.31;;;20.00;35.13
15817;BME280;8009;50.070;8.232;2023-05-19T14:53:56;100353.47;;;19.81;36.25
15817;BME280;8009;50.070;8.232;2023-05-19T14:56:26;100346.84;;;19.92;35.46
15817;BME280;8009;50.070;8.232;2023-05-19T14:58:54;100342.03;;;19.94;35.61
15817;BME280;8009;50.070;8.232;2023-05-19T15:01:23;100348.03;;;20.14;35.77
15817;BME280;8009;50.070;8.232;2023-05-19T15:03:51;100347.56;;;20.18;39.27
15817;BME280;8009;50.070;8.232;2023-05-19T15:06:20;100348.06;;;20.30;36.55
15817;BME280;8009;50.070;8.232;2023-05-19T15:08:50;100354.56;;;20.05;36.49
15817;BME280;8009;50.070;8.232;2023-05-19T15:11:19;100347.50;;;19.94;37.16
15817;BME280;8009;50.070;8.232;2023-05-19T15:13:47;100351.59;;;19.82;37.02
15817;BME280;8009;50.070;8.232;2023-05-19T15:16:16;100335.81;;;19.76;36.62
15817;BME280;8009;50.070;8.232;2023-05-19T15:18:44;100335.28;;;19.72;36.40
15817;BME280;8009;50.070;8.232;2023-05-19T15:24:11;100337.88;;;19.82;36.60
15817;BME280;8009;50.070;8.232;2023-05-19T15:26:40;100340.31;;;20.01;36.96
15817;BME280;8009;50.070;8.232;2023-05-19T15:45:37;100337.59;;;20.01;36.86
15817;BME280;8009;50.070;8.232;2023-05-19T15:48:05;100341.50;;;19.90;39.46
15817;BME280;8009;50.070;8.232;2023-05-19T15:50:34;100345.06;;;19.75;36.87
15817;BME280;8009;50.070;8.232;2023-05-19T15:53:02;100338.22;;;19.79;36.74
15817;BME280;8009;50.070;8.232;2023-05-19T15:55:32;100339.91;;;19.71;37.52
15817;BME280;8009;50.070;8.232;2023-05-19T15:58:00;100344.72;;;19.69;37.44
15817;BME280;8009;50.070;8.232;2023-05-19T16:00:29;100330.88;;;19.87;37.34
15817;BME280;8009;50.070;8.232;2023-05-19T16:02:59;100326.50;;;19.60;37.48
15817;BME280;8009;50.070;8.232;2023-05-19T16:05:28;100328.59;;;19.66;37.63
15817;BME280;8009;50.070;8.232;2023-05-19T16:07:56;100320.94;;;19.78;38.20
15817;BME280;8009;50.070;8.232;2023-05-19T16:10:24;100333.13;;;19.49;38.62
15817;BME280;8009;50.070;8.232;2023-05-19T16:12:53;100330.25;;;19.51;37.75
15817;BME280;8009;50.070;8.232;2023-05-19T16:15:21;100324.75;;;19.43;37.83
15817;BME280;8009;50.070;8.232;2023-05-19T16:17:49;100319.88;;;19.71;37.67
15817;BME280;8009;50.070;8.232;2023-05-19T16:20:21;100324.22;;;19.47;38.27
15817;BME280;8009;50.070;8.232;2023-05-19T16:22:52;100323.38;;;19.47;38.43
15817;BME280;8009;50.070;8.232;2023-05-19T16:25:20;100312.25;;;19.48;37.91
15817;BME280;8009;50.070;8.232;2023-05-19T16:27:49;100324.59;;;19.53;38.30
15817;BME280;8009;50.070;8.232;2023-05-19T16:30:17;100316.69;;;19.49;38.24
15817;BME280;8009;50.070;8.232;2023-05-19T16:32:47;100316.63;;;19.33;37.90
15817;BME280;8009;50.070;8.232;2023-05-19T16:35:17;100307.78;;;19.39;39.14
15817;BME280;8009;50.070;8.232;2023-05-19T16:37:48;100310.34;;;19.49;37.94
15817;BME280;8009;50.070;8.232;2023-05-19T16:40:16;100313.81;;;19.51;38.15
15817;BME280;8009;50.070;8.232;2023-05-19T16:42:45;100311.56;;;19.46;38.68
15817;BME280;8009;50.070;8.232;2023-05-19T16:45:13;100308.13;;;19.44;38.37
15817;BME280;8009;50.070;8.232;2023-05-19T16:47:42;100300.50;;;19.64;38.25
15817;BME280;8009;50.070;8.232;2023-05-19T16:50:11;100299.75;;;19.46;39.08
15817;BME280;8009;50.070;8.232;2023-05-19T16:52:39;100300.13;;;19.51;38.51
15817;BME280;8009;50.070;8.232;2023-05-19T16:55:10;100300.75;;;19.37;39.25
15817;BME280;8009;50.070;8.232;2023-05-19T16:57:41;100308.28;;;19.35;38.93
15817;BME280;8009;50.070;8.232;2023-05-19T17:00:11;100314.16;;;19.14;39.20
15817;BME280;8009;50.070;8.232;2023-05-19T17:02:39;100307.38;;;19.26;38.42
15817;BME280;8009;50.070;8.232;2023-05-19T17:05:08;100313.84;;;19.17;38.24
15817;BME280;8009;50.070;8.232;2023-05-19T17:07:38;100321.03;;;19.18;38.46
15817;BME280;8009;50.070;8.232;2023-05-19T17:10:10;100316.38;;;19.10;38.13
15817;BME280;8009;50.070;8.232;2023-05-19T17:12:38;100313.50;;;19.12;37.51
15817;BME280;8009;50.070;8.232;2023-05-19T17:15:07;100323.50;;;19.03;37.46
15817;BME280;8009;50.070;8.232;2023-05-19T17:17:36;100322.06;;;19.17;38.11
15817;BME280;8009;50.070;8.232;2023-05-19T17:20:05;100323.63;;;19.19;37.62
15817;BME280;8009;50.070;8.232;2023-05-19T17:22:34;100319.72;;;18.96;37.27
15817;BME280;8009;50.070;8.232;2023-05-19T17:25:03;100316.81;;;18.97;37.38
15817;BME280;8009;50.070;8.232;2023-05-19T17:27:34;100323.47;;;18.95;37.39
15817;BME280;8009;50.070;8.232;2023-05-19T17:30:03;100327.00;;;19.13;37.75
15817;BME280;8009;50.070;8.232;2023-05-19T17:32:31;100325.31;;;19.20;39.26
15817;BME280;8009;50.070;8.232;2023-05-19T17:35:02;100327.28;;;19.02;38.52
15817;BME280;8009;50.070;8.232;2023-05-19T17:37:31;100336.25;;;18.68;38.20
15817;BME280;8009;50.070;8.232;2023-05-19T17:40:00;100332.63;;;18.78;38.08
15817;BME280;8009;50.070;8.232;2023-05-19T17:42:29;100330.25;;;18.83;37.60
15817;BME280;8009;50.070;8.232;2023-05-19T17:44:59;100332.22;;;18.72;37.48
15817;BME280;8009;50.070;8.232;2023-05-19T17:47:31;100326.97;;;18.79;36.66
15817;BME280;8009;50.070;8.232;2023-05-19T17:50:00;100324.28;;;18.87;37.39
15817;BME280;8009;50.070;8.232;2023-05-19T17:52:28;100331.94;;;18.84;37.47
15817;BME280;8009;50.070;8.232;2023-05-19T17:54:57;100353.41;;;18.70;36.79
15817;BME280;8009;50.070;8.232;2023-05-19T17:57:29;100337.06;;;18.79;35.91
15817;BME280;8009;50.070;8.232;2023-05-19T18:00:00;100337.59;;;18.82;35.90
15817;BME280;8009;50.070;8.232;2023-05-19T18:02:30;100337.44;;;18.84;36.41
15817;BME280;8009;50.070;8.232;2023-05-19T18:04:59;100335.72;;;18.83;35.79
15817;BME280;8009;50.070;8.232;2023-05-19T18:07:28;100341.50;;;18.62;36.90
15817;BME280;8009;50.070;8.232;2023-05-19T18:09:59;100336.22;;;18.60;36.55
15817;BME280;8009;50.070;8.232;2023-05-19T18:12:27;100342.84;;;18.58;36.92
15817;BME280;8009;50.070;8.232;2023-05-19T18:15:02;100341.09;;;18.48;37.68
15817;BME280;8009;50.070;8.232;2023-05-19T18:17:33;100341.69;;;18.60;37.20
15817;BME280;8009;50.070;8.232;2023-05-19T18:20:02;100349.75;;;18.44;37.83
15817;BME280;8009;50.070;8.232;2023-05-19T18:22:31;100355.63;;;18.31;38.68
15817;BME280;8009;50.070;8.232;2023-05-19T18:24:59;100351.72;;;18.34;38.24
15817;BME280;8009;50.070;8.232;2023-05-19T18:27:27;100354.16;;;18.19;38.76
15817;BME280;8009;50.070;8.232;2023-05-19T18:29:57;100350.06;;;18.23;38.76
15817;BME280;8009;50.070;8.232;2023-05-19T18:32:28;100347.50;;;18.39;37.90
15817;BME280;8009;50.070;8.232;2023-05-19T18:34:57;100347.41;;;18.49;38.34
15817;BME280;8009;50.070;8.232;2023-05-19T18:37:25;100350.88;;;18.33;38.58
15817;BME280;8009;50.070;8.232;2023-05-19T18:39:54;100354.56;;;18.24;39.51
15817;BME280;8009;50.070;8.232;2023-05-19T18:42:22;100358.06;;;18.16;39.77
15817;BME280;8009;50.070;8.232;2023-05-19T18:44:50;100347.97;;;17.99;39.25
15817;BME280;8009;50.070;8.232;2023-05-19T18:47:48;100357.34;;;17.96;39.32
15817;BME280;8009;50.070;8.232;2023-05-19T18:50:17;100364.94;;;18.02;39.37
15817;BME280;8009;50.070;8.232;2023-05-19T18:52:45;100363.81;;;17.95;39.22
15817;BME280;8009;50.070;8.232;2023-05-19T18:55:15;100364.97;;;17.93;39.44
15817;BME280;8009;50.070;8.232;2023-05-19T18:57:44;100367.88;;;17.91;40.07
15817;BME280;8009;50.070;8.232;2023-05-19T19:00:13;100365.91;;;17.84;39.98
15817;BME280;8009;50.070;8.232;2023-05-19T19:02:42;100368.72;;;17.92;39.09
15817;BME280;8009;50.070;8.232;2023-05-19T19:05:26;100370.13;;;17.96;40.53
15817;BME280;8009;50.070;8.232;2023-05-19T19:07:54;100370.44;;;17.93;39.71
15817;BME280;8009;50.070;8.232;2023-05-19T19:10:23;100374.59;;;17.97;40.16
15817;BME280;8009;50.070;8.232;2023-05-19T19:12:51;100366.84;;;17.92;41.13
15817;BME280;8009;50.070;8.232;2023-05-19T19:15:19;100374.91;;;18.12;40.36
15817;BME280;8009;50.070;8.232;2023-05-19T19:17:48;100368.03;;;17.90;40.90
15817;BME280;8009;50.070;8.232;2023-05-19T19:20:16;100367.41;;;17.68;41.05
15817;BME280;8009;50.070;8.232;2023-05-19T19:22:47;100369.59;;;17.92;40.27
15817;BME280;8009;50.070;8.232;2023-05-19T19:25:16;100373.72;;;17.78;41.40
15817;BME280;8009;50.070;8.232;2023-05-19T19:27:44;100374.03;;;17.66;39.58
15817;BME280;8009;50.070;8.232;2023-05-19T19:30:13;100373.66;;;17.61;39.89
15817;BME280;8009;50.070;8.232;2023-05-19T19:32:41;100379.09;;;17.61;39.26
15817;BME280;8009;50.070;8.232;2023-05-19T19:35:09;100379.56;;;17.56;38.80
15817;BME280;8009;50.070;8.232;2023-05-19T19:37:38;100375.78;;;17.67;39.00
15817;BME280;8009;50.070;8.232;2023-05-19T19:40:10;100381.03;;;17.50;38.04
15817;BME280;8009;50.070;8.232;2023-05-19T19:42:39;100381.75;;;17.80;39.55
15817;BME280;8009;50.070;8.232;2023-05-19T19:45:09;100382.94;;;17.68;39.08
15817;BME280;8009;50.070;8.232;2023-05-19T19:47:38;100382.53;;;17.35;39.07
15817;BME280;8009;50.070;8.232;2023-05-19T19:50:07;100383.09;;;17.66;39.57
15817;BME280;8009;50.070;8.232;2023-05-19T19:52:35;100383.66;;;17.42;39.17
15817;BME280;8009;50.070;8.232;2023-05-19T19:55:05;100378.72;;;17.18;39.60
15817;BME280;8009;50.070;8.232;2023-05-19T19:57:36;100382.22;;;17.11;38.76
15817;BME280;8009;50.070;8.232;2023-05-19T20:00:06;100381.09;;;17.41;39.13
15817;BME280;8009;50.070;8.232;2023-05-19T20:02:35;100378.00;;;17.16;39.52
15817;BME280;8009;50.070;8.232;2023-05-19T20:05:05;100382.03;;;17.22;39.44
15817;BME280;8009;50.070;8.232;2023-05-19T20:07:33;100379.75;;;17.17;38.83
15817;BME280;8009;50.070;8.232;2023-05-19T20:10:01;100368.56;;;17.11;39.07
15817;BME280;8009;50.070;8.232;2023-05-19T20:12:30;100379.69;;;17.27;39.40
15817;BME280;8009;50.070;8.232;2023-05-19T20:15:01;100381.47;;;17.09;38.50
15817;BME280;8009;50.070;8.232;2023-05-19T20:17:29;100383.06;;;17.11;39.83
15817;BME280;8009;50.070;8.232;2023-05-19T20:19:58;100382.78;;;17.14;38.74
15817;BME280;8009;50.070;8.232;2023-05-19T20:22:28;100381.53;;;16.99;39.32
15817;BME280;8009;50.070;8.232;2023-05-19T20:24:57;100376.06;;;16.99;39.17
15817;BME280;8009;50.070;8.232;2023-05-19T20:27:25;100378.34;;;17.03;39.60
15817;BME280;8009;50.070;8.232;2023-05-19T20:29:53;100384.38;;;16.97;39.45
15817;BME280;8009;50.070;8.232;2023-05-19T20:32:24;100383.69;;;16.86;40.27
15817;BME280;8009;50.070;8.232;2023-05-19T20:34:55;100381.75;;;17.15;39.53
15817;BME280;8009;50.070;8.232;2023-05-19T20:37:23;100378.50;;;17.02;39.87
15817;BME280;8009;50.070;8.232;2023-05-19T20:39:52;100376.00;;;17.18;39.62
15817;BME280;8009;50.070;8.232;2023-05-19T20:42:21;100378.75;;;17.09;39.67
15817;BME280;8009;50.070;8.232;2023-05-19T20:44:52;100376.84;;;17.19;39.56
15817;BME280;8009;50.070;8.232;2023-05-19T20:47:20;100380.53;;;16.71;40.36
15817;BME280;8009;50.070;8.232;2023-05-19T20:49:52;100377.34;;;17.04;39.98
15817;BME280;8009;50.070;8.232;2023-05-19T20:52:20;100382.09;;;16.93;40.54
15817;BME280;8009;50.070;8.232;2023-05-19T20:54:48;100378.81;;;16.99;40.52